D/T METAR WX W/SPE G/SPE TEMP DEWP FEEL
31/01/23 07:35 EGVA 310735Z AUTO 26016KT 9999 SCT010 BKN200 07/07 A3019 RMK AO2 SLP229 PWINO FZRANO $ 18.4mph 7°C 7°C 7.0°C
31/01/23 06:55 EGVA 310655Z AUTO 23010KT 9999 OVC009 06/06 A3020 RMK AO2 SLP232 T00570056 PWINO FZRANO $ 11.5mph 5.7°C 5.6°C 5.2°C
31/01/23 05:55 EGVA 310555Z AUTO 20009KT 9999 OVC009 07/06 A3022 RMK AO2 SLP239 T00650064 10068 20040 57016 PWINO FZRANO $ 10.4mph 6.5°C 6.4°C 6.3°C
31/01/23 04:40 EGVA 310440Z AUTO 22010KT 9999 OVC009 06/06 A3023 RMK AO2 SLP242 PWINO FZRANO $ 11.5mph 6°C 6°C 5.6°C
30/01/23 21:55 EGVA 302155Z AUTO 24004KT 9999 OVC110 04/03 A3033 RMK AO2 SLP277 T00350034 PWINO FZRANO $ 4.6mph 3.5°C 3.4°C 2.3°C
30/01/23 12:55 EGVA 301255Z AUTO 28007KT 9999 FEW180 08/04 A3028 RMK AO2 SLP259 T00800035 PWINO FZRANO $ 8.1mph 8°C 3.5°C 6.8°C
30/01/23 11:55 EGVA 301155Z AUTO 28007KT 9999 SCT170 08/04 A3029 RMK AO2 SLP262 T00790037 10079 20007 53007 PWINO FZRANO $ 8.1mph 7.9°C 3.7°C 6.8°C
30/01/23 10:55 EGVA 301055Z AUTO 29010KT 9999 SCT180 07/04 A3028 RMK AO2 SLP259 T00650035 PWINO FZRANO $ 11.5mph 6.5°C 3.5°C 5.3°C
30/01/23 09:55 EGVA 300955Z AUTO 29009KT 9999 BKN200 04/04 A3026 RMK AO2 SLP253 T00430039 PWINO FZRANO $ 10.4mph 4.3°C 3.9°C 3.2°C
30/01/23 07:55 EGVA 300755Z AUTO 23007KT 9999 CLR 01/01 A3024 RMK AO2 SLP246 T00140013 PWINO FZRANO $ 8.1mph 1.4°C 1.3°C -0.4°C
30/01/23 06:55 EGVA 300655Z AUTO 27006KT 9999 CLR 02/02 A3023 RMK AO2 SLP243 T00170016 PWINO FZRANO $ 6.9mph 1.7°C 1.6°C 0.0°C
09/01/23 05:55 EGVA 090555Z AUTO 25008KT 9999 CLR 05/05 A2934 RMK AO2 SLP941 60000 T00490048 10056 20038 52020 FZRANO $ 9.2mph 4.9°C 4.8°C 4.1°C
09/01/23 04:55 EGVA 090455Z AUTO 25011KT 9999 CLR 05/05 A2933 RMK AO2 SLP937 T00540053 FZRANO $ 12.7mph 5.4°C 5.3°C 4.8°C
09/01/23 03:55 EGVA 090355Z AUTO 25008KT 9999 BKN100 05/05 A2931 RMK AO2 SLP930 T00530052 FZRANO $ 9.2mph 5.3°C 5.2°C 4.7°C
09/01/23 02:55 EGVA 090255Z AUTO 24006KT 9999 SCT036 BKN046 04/04 A2928 RMK AO2 SLP920 60000 T00390038 52031 FZRANO $ 6.9mph 3.9°C 3.8°C 2.8°C
09/01/23 01:55 EGVA 090155Z AUTO 25008KT 9999 FEW070 SCT100 04/04 A2925 RMK AO2 SLP910 T00440043 FZRANO $ 9.2mph 4.4°C 4.3°C 3.5°C
09/01/23 00:55 EGVA 090055Z AUTO 25008KT 9999 CLR 05/05 A2922 RMK AO2 RAB2355E12 SLP899 P0000 T00460045 FZRANO $ 9.2mph 4.6°C 4.5°C 3.7°C
09/01/23 00:12 EGVA 090012Z AUTO 25008KT 9999 BKN080 06/06 A2920 RMK AO2 RAB2355E12 SLP892 FZRANO $ 9.2mph 6°C 6°C 5.6°C
08/01/23 22:55 EGVA 082255Z AUTO 00000KT 9999 FEW015 OVC021 06/06 A2915 RMK AO2 CIG 015V023 SLP875 T00580057 FZRANO $ 5.8°C 5.7°C 5.3°C
08/01/23 22:50 EGVA 082250Z AUTO 00000KT 9999 SCT016 OVC021 06/06 A2915 RMK AO2 CIG 015V023 SLP875 FZRANO $ 6°C 6°C 5.6°C
08/01/23 21:55 EGVA 082155Z AUTO 00000KT 9999 OVC019 06/05 A2912 RMK AO2 RAE2056DZB2056E00RAB00E01DZB01E11 SLP865 P0000 T00550054 FZRANO $ 5.5°C 5.4°C 4.9°C
08/01/23 20:50 EGVA 082050Z AUTO 19008KT 9999 -RA FEW030 SCT037 BKN049 OVC060 06/06 A2913 RMK AO2 RAB50 SLP869 FZRANO $ -RA 9.2mph 6°C 6°C 5.6°C
08/01/23 18:55 EGVA 081855Z AUTO 21007KT 9999 CLR 04/04 A2915 RMK AO2 DZB1758E04DZB05E06DZB19E23 SLP876 P0000 T00420041 FZRANO $ 8.1mph 4.2°C 4.1°C 3.2°C
08/01/23 18:23 EGVA 081823Z AUTO 21009KT 9999 FEW042 04/04 A2916 RMK AO2 DZB1758E04DZB05E06DZB19E23 SLP879 FZRANO $ 10.4mph 4°C 4°C 3.0°C
08/01/23 18:19 EGVA 081819Z AUTO 22009KT 9999 -DZ FEW042 04/04 A2917 RMK AO2 DZB1758E04DZB05E06DZB19 SLP883 FZRANO $ -DZ 10.4mph 4°C 4°C 3.0°C
08/01/23 17:01 EGVA 081701Z AUTO 23009KT 9999 FEW029 FEW037 SCT050 05/04 A2916 RMK AO2 RAE01 SLP879 FZRANO $ 10.4mph 5°C 4°C 4.0°C
08/01/23 16:48 EGVA 081648Z AUTO 24012G18KT 9999 -RA FEW022 FEW029 SCT037 BKN050 05/05 A2917 RMK AO2 RAE38RAB48 SLP883 FZRANO $ -RA 13.8mph 20.7mph 5°C 5°C 4.3°C
08/01/23 16:10 EGVA 081610Z AUTO 27014G30KT 9999 -RA SCT017 BKN025 OVC033 05/05 A2918 RMK AO2 CIG 017V026 CIG 016 RWY09 SLP886 FZRANO $ -RA 16.1mph 34.5mph 5°C 5°C 4.3°C
08/01/23 15:34 EGVA 081534Z AUTO 24012G21KT 9999 -RA FEW024 BKN036 BKN044 07/05 A2915 RMK AO2 RAB34 SLP875 FZRANO $ -RA 13.8mph 24.2mph 7°C 5°C 6.3°C
08/01/23 14:45 EGVA 081445Z AUTO 23011KT 9999 SCT025 BKN030 08/06 A2914 RMK AO2 SLP872 FZRANO $ 12.7mph 8°C 6°C 7.6°C
08/01/23 13:55 EGVA 081355Z AUTO 22012KT 9999 CLR 08/07 A2914 RMK AO2 SLP872 T00780067 FZRANO $ 13.8mph 7.8°C 6.7°C 7.7°C
08/01/23 12:55 EGVA 081255Z AUTO 21011KT 9999 CLR 08/07 A2916 RMK AO2 SLP879 T00760070 FZRANO $ 12.7mph 7.6°C 7°C 7.6°C
08/01/23 12:25 EGVA 081225Z AUTO 21012KT 9999 SCT023 BKN031 08/07 A2917 RMK AO2 SLP882 FZRANO $ 13.8mph 8°C 7°C 8.0°C
08/01/23 12:15 EGVA 081215Z AUTO 22016G23KT 9999 BKN025 OVC031 08/07 A2918 RMK AO2 CIG 024V031 CIG 020 RWY09 SLP885 FZRANO $ 18.4mph 26.5mph 8°C 7°C 8.0°C
08/01/23 11:25 EGVA 081125Z AUTO 20018KT 9999 BKN027 BKN038 OVC050 08/06 A2919 RMK AO2 CIG 027V055 SLP889 FZRANO $ 20.7mph 8°C 6°C 7.6°C
08/01/23 10:55 EGVA 081055Z AUTO 20016KT 9999 FEW060 BKN080 BKN095 08/07 A2921 RMK AO2 SLP896 T00810072 FZRANO $ 18.4mph 8.1°C 7.2°C 8.2°C
08/01/23 09:55 EGVA 080955Z AUTO 20013KT 9999 CLR 08/07 A2923 RMK AO2 SLP902 T00750069 FZRANO $ 15.0mph 7.5°C 6.9°C 7.5°C
08/01/23 08:55 EGVA 080855Z AUTO 19011KT 9999 FEW028 SCT047 07/07 A2925 RMK AO2 SLP909 T00660065 57018 FZRANO $ 12.7mph 6.6°C 6.5°C 6.4°C
08/01/23 07:55 EGVA 080755Z AUTO 18011KT 9999 CLR 06/06 A2927 RMK AO2 SLP916 T00560055 FZRANO $ 12.7mph 5.6°C 5.5°C 5.1°C
08/01/23 06:55 EGVA 080655Z AUTO 20008KT 9999 FEW038 06/06 A2930 RMK AO2 SLP927 T00560055 FZRANO $ 9.2mph 5.6°C 5.5°C 5.1°C
08/01/23 05:55 EGVA 080555Z AUTO 20009KT 9999 SCT027 OVC047 06/06 A2930 RMK AO2 SLP926 60000 T00640060 10078 20064 58007 FZRANO $ 10.4mph 6.4°C 6°C 6.0°C
08/01/23 05:10 EGVA 080510Z AUTO 21014KT 9999 BKN028 BKN041 07/05 A2932 RMK AO2 CIG 028V042 CIG 027 RWY09 SLP933 FZRANO $ 16.1mph 7°C 5°C 6.3°C
08/01/23 04:22 EGVA 080422Z AUTO 21011KT 9999 FEW060 07/05 A2932 RMK AO2 RAB13E22 SLP933 FZRANO $ 12.7mph 7°C 5°C 6.3°C
08/01/23 04:13 EGVA 080413Z AUTO 20012KT 9999 -RA FEW046 SCT060 07/05 A2932 RMK AO2 RAB13 SLP933 FZRANO $ -RA 13.8mph 7°C 5°C 6.3°C
08/01/23 03:05 EGVA 080305Z AUTO 21012KT 9999 SCT027 07/05 A2933 RMK AO2 SLP936 FZRANO $ 13.8mph 7°C 5°C 6.3°C
08/01/23 02:40 EGVA 080240Z AUTO 22011KT 9999 BKN029 08/07 A2933 RMK AO2 SLP936 FZRANO $ 12.7mph 8°C 7°C 8.0°C
08/01/23 01:55 EGVA 080155Z AUTO 22013KT 9999 CLR 08/07 A2932 RMK AO2 SLP933 T00760068 FZRANO $ 15.0mph 7.6°C 6.8°C 7.5°C
08/01/23 00:55 EGVA 080055Z AUTO 21011KT 9999 SCT035 SCT060 08/07 A2934 RMK AO2 SLP940 T00750069 FZRANO $ 12.7mph 7.5°C 6.9°C 7.5°C
07/01/23 23:55 EGVA 072355Z AUTO 22011KT 9999 CLR 07/07 A2935 RMK AO2 SLP943 T00740065 10076 20061 401200061 55001 FZRANO $ 12.7mph 7.4°C 6.5°C 7.2°C
07/01/23 22:55 EGVA 072255Z AUTO 21013KT 9999 FEW036 07/07 A2936 RMK AO2 SLP946 T00740070 FZRANO $ 15.0mph 7.4°C 7°C 7.4°C
07/01/23 21:55 EGVA 072155Z AUTO 21016KT 9999 CLR 07/07 A2935 RMK AO2 SLP943 T00720066 FZRANO $ 18.4mph 7.2°C 6.6°C 7.1°C
07/01/23 20:55 EGVA 072055Z AUTO 21014KT 9999 CLR 06/06 A2935 RMK AO2 SLP943 T00640058 51008 FZRANO $ 16.1mph 6.4°C 5.8°C 6.0°C
07/01/23 19:55 EGVA 071955Z AUTO 21012KT 9999 FEW050 FEW060 06/06 A2935 RMK AO2 SLP943 T00610058 FZRANO $ 13.8mph 6.1°C 5.8°C 5.7°C
07/01/23 18:55 EGVA 071855Z AUTO 22013KT 9999 CLR 07/06 A2935 RMK AO2 SLP943 T00660060 FZRANO $ 15.0mph 6.6°C 6°C 6.2°C
07/01/23 17:55 EGVA 071755Z AUTO 23016KT 9999 CLR 07/07 A2933 RMK AO2 RAE1656 SLP936 P0000 60014 T00720069 10112 20072 53006 FZRANO $ 18.4mph 7.2°C 6.9°C 7.2°C
07/01/23 17:01 EGVA 071701Z AUTO 24014KT 9999 FEW017 SCT023 SCT029 BKN039 BKN080 08/08 A2931 RMK AO2 RAE1656 SLP929 FZRANO $ 16.1mph 8°C 8°C 8.4°C
07/01/23 15:55 EGVA 071555Z AUTO 21020G30KT 9999 -RA FEW028 BKN035 OVC047 09/09 A2931 RMK AO2 PK WND 19030/46 RAB40 PRESRR SLP929 P0004 T00870085 FZRANO $ -RA 23.0mph 34.5mph 8.7°C 8.5°C 9.3°C
07/01/23 15:40 EGVA 071540Z AUTO 21013KT 9999 -RA FEW029 SCT034 SCT042 OVC050 10/09 A2929 RMK AO2 RAB40 SLP922 FZRANO $ -RA 15.0mph 10°C 9°C 10.8°C
07/01/23 14:55 EGVA 071455Z AUTO 21015KT 9999 FEW065 10/09 A2931 RMK AO2 RAE14 SLP929 P0001 60006 T00990091 57018 FZRANO $ 17.3mph 9.9°C 9.1°C 10.8°C
07/01/23 14:14 EGVA 071414Z AUTO 22016KT 9999 SCT024 BKN036 BKN050 11/11 A2932 RMK AO2 RAE14 SLP932 FZRANO $ 18.4mph 11°C 11°C 12.8°C
07/01/23 13:15 EGVA 071315Z AUTO 21013KT 9999 BKN012 BKN020 11/10 A2933 RMK AO2 RAB1255E15 CIG 012V017 SLP936 FZRANO $ 15.0mph 11°C 10°C 12.3°C
07/01/23 12:34 EGVA 071234Z AUTO 21015G23KT 9999 FEW008 FEW013 BKN042 OVC055 11/11 A2934 RMK AO2 RAE34 SLP939 FZRANO $ 17.3mph 26.5mph 11°C 11°C 12.8°C
07/01/23 12:15 EGVA 071215Z AUTO 21016G22KT 9999 -RA BKN010 BKN018 BKN026 OVC041 11/11 A2935 RMK AO2 CIG 008V010 CIG 009 RWY09 SLP943 FZRANO $ -RA 18.4mph 25.3mph 11°C 11°C 12.8°C
07/01/23 11:41 EGVA 071141Z AUTO 22017G23KT 4400 +RA BR SCT014 OVC040 11/10 A2937 RMK AO2 VIS 3600V9000 RAB1055 SLP949 FZRANO $ +RA BR 19.6mph 26.5mph 11°C 10°C 12.3°C
07/01/23 10:56 EGVA 071056Z AUTO 20020G26KT 9999 -RA BKN016 OVC022 11/11 A2937 RMK AO2 RAB55 BKN V OVC SLP949 FZRANO $ -RA 23.0mph 29.9mph 11°C 11°C 12.8°C
07/01/23 09:55 EGVA 070955Z AUTO 20016G26KT 9999 FEW010 OVC016 11/11 A2939 RMK AO2 PK WND 18027/50 CIG 010V016 CIG 014 RWY09 SLP956 P0001 T01100108 FZRANO $ 18.4mph 29.9mph 11°C 10.8°C 12.7°C
07/01/23 09:00 EGVA 070900Z AUTO 20020KT 9999 OVC013 11/11 A2941 RMK AO2 SLP963 FZRANO $ 23.0mph 11°C 11°C 12.8°C
07/01/23 08:24 EGVA 070824Z AUTO 19021G29KT 9999 OVC015 11/10 A2941 RMK AO2 RAE24 CIG 013 RWY09 SLP963 FZRANO $ 24.2mph 33.4mph 11°C 10°C 12.3°C
07/01/23 07:55 EGVA 070755Z AUTO 19024G29KT 9999 -RA BKN014 OVC028 11/10 A2941 RMK AO2 PK WND 17034/35 RAB0656E11RAB19 CIG 012 RWY09 SLP963 P0001 T01050103 FZRANO $ -RA 27.6mph 33.4mph 10.5°C 10.3°C 11.9°C
07/01/23 07:19 EGVA 070719Z AUTO 19025G31KT 9999 -RA OVC013 11/10 A2943 RMK AO2 RAB0656E11RAB19 CIG 012 RWY09 SLP970 FZRANO $ -RA 28.8mph 35.7mph 11°C 10°C 12.3°C
07/01/23 07:11 EGVA 070711Z AUTO 19021G30KT 9999 OVC013 11/10 A2943 RMK AO2 RAB0656E11 CIG 012 RWY09 SLP970 FZRANO $ 24.2mph 34.5mph 11°C 10°C 12.3°C
07/01/23 06:39 EGVA 070639Z AUTO 19023G31KT 9999 -DZ OVC014 11/10 A2945 RMK AO2 RAB0555E19DZB39 SLP976 FZRANO $ -DZ 26.5mph 35.7mph 11°C 10°C 12.3°C
07/01/23 06:19 EGVA 070619Z AUTO 19020G28KT 9999 BKN014 OVC023 11/10 A2947 RMK AO2 RAB0555E19 BKN V OVC CIG 013 RWY09 SLP983 FZRANO $ 23.0mph 32.2mph 11°C 10°C 12.3°C
07/01/23 05:33 EGVA 070533Z AUTO 19021G30KT 9999 BKN017 OVC022 11/11 A2949 RMK AO2 RAE09DZB09E10RAB10E11RAB14E26DZB26E33 CIG 015 RWY09 SLP990 FZRANO $ 24.2mph 34.5mph 11°C 11°C 12.8°C
07/01/23 05:14 EGVA 070514Z AUTO 19019G31KT 9999 -RA BKN016 OVC022 11/11 A2950 RMK AO2 RAE09DZB09E10RAB10E11RAB14 SLP993 FZRANO $ -RA 21.9mph 35.7mph 11°C 11°C 12.8°C
07/01/23 04:19 EGVA 070419Z AUTO 19022G29KT 9999 -DZ BKN013 OVC019 11/11 A2953 RMK AO2 DZB19 SLP004 FZRANO $ -DZ 25.3mph 33.4mph 11°C 11°C 12.8°C
07/01/23 04:15 EGVA 070415Z AUTO 20019G28KT 9999 OVC014 11/11 A2954 RMK AO2 SLP007 FZRANO $ 21.9mph 32.2mph 11°C 11°C 12.8°C
07/01/23 03:34 EGVA 070334Z AUTO 20019G28KT 9999 -RA OVC016 11/11 A2956 RMK AO2 DZB29E33RAB33 OVC V BKN CIG 015 RWY09 SLP014 FZRANO $ -RA 21.9mph 32.2mph 11°C 11°C 12.8°C
07/01/23 02:55 EGVA 070255Z AUTO 19019G28KT 9999 OVC010 11/11 A2959 RMK AO2 PK WND 17032/06 DZB03E28RAB28E44DZB44E49 SLP024 P0000 60000 T01090107 57032 FZRANO $ 21.9mph 32.2mph 10.9°C 10.7°C 12.5°C
07/01/23 02:03 EGVA 070203Z AUTO 20023G30KT 9999 DZ OVC014 12/11 A2960 RMK AO2 DZB03 SLP027 FZRANO $ DZ 26.5mph 34.5mph 12°C 11°C 13.8°C
07/01/23 01:40 EGVA 070140Z AUTO 20021G26KT 9999 OVC014 11/11 A2961 RMK AO2 DZB05E20 SLP031 FZRANO $ 24.2mph 29.9mph 11°C 11°C 12.8°C
07/01/23 01:05 EGVA 070105Z AUTO 20022G28KT 9999 -DZ OVC016 12/12 A2963 RMK AO2 DZB05 SLP038 FZRANO $ -DZ 25.3mph 32.2mph 12°C 12°C 14.3°C
07/01/23 00:30 EGVA 070030Z AUTO 20019G25KT 9999 OVC015 12/12 A2966 RMK AO2 DZE00DZB04E30 SLP048 FZRANO $ 21.9mph 28.8mph 12°C 12°C 14.3°C
07/01/23 00:04 EGVA 070004Z AUTO 21021G28KT 9999 -DZ OVC015 12/12 A2968 RMK AO2 DZE00DZB04 SLP055 FZRANO $ -DZ 24.2mph 32.2mph 12°C 12°C 14.3°C
06/01/23 23:45 EGVA 062345Z AUTO 20018G25KT 9999 -DZ BKN016 OVC022 12/12 A2969 RMK AO2 DZB20 CIG 016V022 SLP058 FZRANO $ -DZ 20.7mph 28.8mph 12°C 12°C 14.3°C
06/01/23 22:55 EGVA 062255Z AUTO 20015KT 9999 OVC015 12/12 A2971 RMK AO2 PK WND 17026/10 SLP065 T01180116 FZRANO $ 17.3mph 11.8°C 11.6°C 13.9°C
06/01/23 22:20 EGVA 062220Z AUTO 20019G24KT 9999 OVC015 11/11 A2972 RMK AO2 SLP068 FZRANO $ 21.9mph 27.6mph 11°C 11°C 12.8°C
06/01/23 22:15 EGVA 062215Z AUTO 20014KT 9999 OVC014 12/11 A2973 RMK AO2 OVC V BKN SLP072 FZRANO $ 16.1mph 12°C 11°C 13.8°C
06/01/23 21:48 EGVA 062148Z AUTO 20018G25KT 9999 SCT014 OVC022 12/11 A2973 RMK AO2 RAB09E38 CIG 014V022 CIG 021 RWY09 SLP072 FZRANO $ 20.7mph 28.8mph 12°C 11°C 13.8°C
06/01/23 21:09 EGVA 062109Z AUTO 20017KT 9999 -RA FEW008 BKN014 OVC023 11/11 A2974 RMK AO2 RAB09 SLP075 FZRANO $ -RA 19.6mph 11°C 11°C 12.8°C
06/01/23 20:45 EGVA 062045Z AUTO 20017G23KT 9999 BKN014 OVC022 11/11 A2975 RMK AO2 SLP079 FZRANO $ 19.6mph 26.5mph 11°C 11°C 12.8°C
06/01/23 20:05 EGVA 062005Z AUTO 21016G23KT 9999 BKN013 OVC020 11/11 A2976 RMK AO2 SLP082 FZRANO $ 18.4mph 26.5mph 11°C 11°C 12.8°C
06/01/23 18:55 EGVA 061855Z AUTO 21015KT 9999 BKN010 OVC015 11/11 A2977 RMK AO2 SLP085 T01140112 FZRANO $ 17.3mph 11.4°C 11.2°C 13.3°C
06/01/23 17:55 EGVA 061755Z AUTO 20011KT 9999 OVC009 11/10 A2978 RMK AO2 DZB1656E04RAB07E46 SLP089 P0001 60001 T01060104 10107 20093 58011 FZRANO $ 12.7mph 10.6°C 10.4°C 12.1°C
06/01/23 17:46 EGVA 061746Z AUTO 20012KT 9999 OVC009 10/10 A2978 RMK AO2 DZB1656E04RAB07E46 SLP089 FZRANO $ 13.8mph 10°C 10°C 11.3°C
06/01/23 17:07 EGVA 061707Z AUTO 18008KT 9999 -RA OVC014 10/10 A2979 RMK AO2 DZB1656E04RAB07 OVC V BKN SLP092 FZRANO $ -RA 9.2mph 10°C 10°C 11.3°C